createdAt,value
2018-07-12T00:00:13.703Z,100342.47
2018-07-12T00:02:41.465Z,100334.05
2018-07-12T00:05:09.229Z,100336.87
2018-07-12T00:07:36.992Z,100336.78
2018-07-12T00:10:04.750Z,100338.95
2018-07-12T00:12:32.313Z,100335.67
2018-07-12T00:15:00.088Z,100333.02
2018-07-12T00:17:27.851Z,100335.16
2018-07-12T00:19:55.712Z,100330.62
2018-07-12T00:22:23.478Z,100336.17
2018-07-12T00:24:51.346Z,100333.16
2018-07-12T00:27:19.109Z,100339.25
2018-07-12T00:29:46.871Z,100339.33
2018-07-12T00:32:14.636Z,100333.41
2018-07-12T00:34:42.404Z,100339.89
2018-07-12T00:37:10.273Z,100335.27
2018-07-12T00:39:38.036Z,100339.20
2018-07-12T00:42:06.007Z,100334.64
2018-07-12T00:44:33.876Z,100334.12
2018-07-12T00:47:02.035Z,100336.03
2018-07-12T00:49:29.606Z,100333.66
2018-07-12T00:51:57.482Z,100338.13
2018-07-12T00:54:25.129Z,100334.08
2018-07-12T00:56:53.109Z,100324.20
2018-07-12T00:59:20.981Z,100330.14
2018-07-12T01:01:48.840Z,100331.29
2018-07-12T01:04:16.706Z,100335.08
2018-07-12T01:06:44.573Z,100330.70
2018-07-12T01:09:12.325Z,100329.67
2018-07-12T01:11:40.002Z,100327.63
2018-07-12T01:14:07.868Z,100322.86
2018-07-12T01:16:35.735Z,100322.74
2018-07-12T01:19:03.396Z,100323.19
2018-07-12T01:21:31.225Z,100326.80
2018-07-12T01:23:59.028Z,100323.19
2018-07-12T01:26:26.790Z,100316.86
2018-07-12T01:28:54.457Z,100316.17
2018-07-12T01:31:22.322Z,100310.89
2018-07-12T01:33:50.085Z,100309.22
2018-07-12T01:36:17.954Z,100302.98
2018-07-12T01:38:45.568Z,100308.17
2018-07-12T01:41:13.335Z,100299.95
2018-07-12T01:43:41.041Z,100302.52
2018-07-12T01:46:08.908Z,100300.50
2018-07-12T01:48:36.636Z,100314.35
2018-07-12T01:51:04.354Z,100313.23
2018-07-12T01:53:32.155Z,100318.15
2018-07-12T01:56:00.080Z,100319.08
2018-07-12T01:58:27.793Z,100327.47
2018-07-12T02:00:55.598Z,100324.92
2018-07-12T02:03:23.363Z,100327.55
2018-07-12T02:05:51.231Z,100334.86
2018-07-12T02:08:19.099Z,100333.59
2018-07-12T02:10:46.866Z,100325.75
2018-07-12T02:13:14.627Z,100326.64
2018-07-12T02:15:42.291Z,100331.42
2018-07-12T02:18:10.054Z,100338.23
2018-07-12T02:20:37.818Z,100337.02
2018-07-12T02:23:05.582Z,100343.09
2018-07-12T02:25:33.358Z,100345.45
2018-07-12T02:28:01.112Z,100345.95
2018-07-12T02:30:28.979Z,100349.49
2018-07-12T02:32:56.745Z,100350.27
2018-07-12T02:35:24.571Z,100351.95
2018-07-12T02:37:52.228Z,100358.84
2018-07-12T02:40:20.037Z,100358.34
2018-07-12T02:42:47.802Z,100355.00
2018-07-12T02:45:15.563Z,100357.37
2018-07-12T02:47:43.334Z,100358.53
2018-07-12T02:50:10.962Z,100362.84
2018-07-12T02:52:38.761Z,100344.28
2018-07-12T02:55:06.523Z,100353.73
2018-07-12T02:57:34.389Z,100361.47
2018-07-12T03:00:02.153Z,100360.41
2018-07-12T03:02:30.021Z,100357.73
2018-07-12T03:04:57.888Z,100356.81
2018-07-12T03:07:25.730Z,100358.34
2018-07-12T03:09:53.521Z,100355.67
2018-07-12T03:12:21.386Z,100359.06
2018-07-12T03:14:49.254Z,100355.31
2018-07-12T03:17:17.019Z,100356.80
2018-07-12T03:19:44.782Z,100360.66
2018-07-12T03:22:12.657Z,100358.20
2018-07-12T03:24:40.467Z,100363.13
2018-07-12T03:27:08.137Z,100365.47
2018-07-12T03:29:35.840Z,100367.50
2018-07-12T03:32:03.709Z,100366.39
2018-07-12T03:34:31.574Z,100366.13
2018-07-12T03:36:59.339Z,100369.94
2018-07-12T03:39:27.107Z,100370.39
2018-07-12T03:41:54.971Z,100376.92
2018-07-12T03:44:22.768Z,100374.55
2018-07-12T03:46:50.603Z,100377.95
2018-07-12T03:49:18.174Z,100384.47
2018-07-12T03:51:46.030Z,100384.66
2018-07-12T03:54:13.693Z,100391.95
2018-07-12T03:56:41.666Z,100393.12
2018-07-12T03:59:09.533Z,100388.08
2018-07-12T04:01:37.397Z,100389.73
2018-07-12T04:04:05.058Z,100383.30
2018-07-12T04:06:32.879Z,100382.64
2018-07-12T04:09:00.590Z,100379.50
2018-07-12T04:11:28.427Z,100380.75
2018-07-12T04:13:56.114Z,100383.39
2018-07-12T04:16:23.988Z,100385.00
2018-07-12T04:18:51.748Z,100381.81
2018-07-12T04:21:19.612Z,100375.70
2018-07-12T04:23:47.381Z,100376.25
2018-07-12T04:26:15.245Z,100379.98
2018-07-12T04:28:42.855Z,100373.64
2018-07-12T04:31:10.679Z,100385.70
2018-07-12T04:33:38.467Z,100387.25
2018-07-12T04:36:06.234Z,100390.39
2018-07-12T04:38:33.895Z,100381.95
2018-07-12T04:41:01.715Z,100387.68
2018-07-12T04:43:29.423Z,100390.59
2018-07-12T04:45:57.199Z,100399.38
2018-07-12T04:48:25.129Z,100392.06
2018-07-12T04:50:52.999Z,100395.72
2018-07-12T04:53:20.758Z,100394.55
2018-07-12T04:55:48.640Z,100393.66
2018-07-12T04:58:16.592Z,100395.02
2018-07-12T05:00:44.300Z,100396.05
2018-07-12T05:03:12.119Z,100401.45
2018-07-12T05:05:39.784Z,100398.70
2018-07-12T05:08:07.617Z,100397.55
2018-07-12T05:10:35.417Z,100396.95
2018-07-12T05:13:03.112Z,100395.68
2018-07-12T05:15:30.848Z,100404.61
2018-07-12T05:17:58.667Z,100404.47
2018-07-12T05:20:26.479Z,100396.83
2018-07-12T05:22:54.200Z,100398.74
2018-07-12T05:25:21.915Z,100396.84
2018-07-12T05:27:49.876Z,100409.52
2018-07-12T05:30:17.663Z,100414.52
2018-07-12T05:32:45.503Z,100409.20
2018-07-12T05:35:13.268Z,100408.22
2018-07-12T05:37:42.819Z,100420.72
2018-07-12T05:40:12.033Z,100428.00
2018-07-12T05:42:41.388Z,100425.09
2018-07-12T05:45:10.659Z,100427.10
2018-07-12T05:47:39.976Z,100428.23
2018-07-12T05:50:09.227Z,100429.91
2018-07-12T05:52:38.499Z,100434.95
2018-07-12T05:55:07.876Z,100432.64
2018-07-12T05:57:37.394Z,100436.03
2018-07-12T06:00:07.071Z,100438.72
2018-07-12T06:02:36.428Z,100440.83
2018-07-12T06:05:05.698Z,100450.63
2018-07-12T06:07:35.134Z,100449.17
2018-07-12T06:10:04.362Z,100456.61
2018-07-12T06:12:33.714Z,100461.94
2018-07-12T06:15:03.106Z,100462.42
2018-07-12T06:17:32.338Z,100462.02
2018-07-12T06:20:01.605Z,100466.14
2018-07-12T06:22:30.899Z,100468.29
2018-07-12T06:25:00.486Z,100464.16
2018-07-12T06:27:29.828Z,100461.83
2018-07-12T06:29:59.435Z,100461.89
2018-07-12T06:32:28.836Z,100460.06
2018-07-12T06:34:59.162Z,100462.64
2018-07-12T06:37:28.781Z,100469.71
2018-07-12T06:39:58.531Z,100472.58
2018-07-12T06:42:28.169Z,100477.03
2018-07-12T06:44:57.590Z,100477.61
2018-07-12T06:47:26.766Z,100472.70
2018-07-12T06:49:56.163Z,100478.90
2018-07-12T06:52:25.382Z,100482.78
2018-07-12T06:54:54.567Z,100472.83
2018-07-12T06:57:23.870Z,100481.87
2018-07-12T06:59:53.268Z,100483.57
2018-07-12T07:02:23.232Z,100479.63
2018-07-12T07:04:52.469Z,100486.77
2018-07-12T07:07:21.802Z,100489.79
2018-07-12T07:09:51.163Z,100494.52
2018-07-12T07:12:20.391Z,100490.47
2018-07-12T07:14:49.731Z,100498.88
2018-07-12T07:17:19.010Z,100497.22
2018-07-12T07:19:48.339Z,100502.52
2018-07-12T07:22:17.594Z,100499.44
2018-07-12T07:24:46.896Z,100507.15
2018-07-12T07:27:16.106Z,100501.30
2018-07-12T07:29:45.449Z,100502.41
2018-07-12T07:32:14.721Z,100504.70
2018-07-12T07:34:43.959Z,100501.11
2018-07-12T07:37:13.222Z,100508.78
2018-07-12T07:39:42.479Z,100515.05
2018-07-12T07:42:11.812Z,100514.75
2018-07-12T07:44:41.474Z,100520.06
2018-07-12T07:47:10.814Z,100530.77
2018-07-12T07:49:40.187Z,100527.97
2018-07-12T07:52:10.168Z,100528.72
2018-07-12T07:54:39.498Z,100527.24
2018-07-12T07:57:08.789Z,100524.17
2018-07-12T07:59:38.119Z,100530.71
2018-07-12T08:02:07.929Z,100525.86
2018-07-12T08:04:37.129Z,100525.59
2018-07-12T08:07:06.499Z,100529.01
2018-07-12T08:09:35.910Z,100533.98
2018-07-12T08:12:05.139Z,100538.45
2018-07-12T08:14:34.546Z,100534.75
2018-07-12T08:17:03.876Z,100532.22
2018-07-12T08:19:33.159Z,100537.20
2018-07-12T08:22:09.831Z,100538.72
2018-07-12T08:24:39.239Z,100542.28
2018-07-12T08:27:08.509Z,100543.31
2018-07-12T08:29:37.946Z,100542.84
2018-07-12T08:32:07.229Z,100544.67
2018-07-12T08:34:36.567Z,100546.25
2018-07-12T08:37:05.880Z,100548.73
2018-07-12T08:39:35.132Z,100550.39
2018-07-12T08:42:04.449Z,100539.47
2018-07-12T08:44:33.758Z,100545.83
2018-07-12T08:47:02.909Z,100545.77
2018-07-12T08:49:32.247Z,100548.32
2018-07-12T08:52:01.482Z,100551.76
2018-07-12T08:54:30.972Z,100542.02
2018-07-12T08:57:00.199Z,100542.63
2018-07-12T08:59:29.651Z,100531.84
2018-07-12T09:01:58.923Z,100533.55
2018-07-12T09:04:28.274Z,100529.27
2018-07-12T09:06:57.529Z,100537.66
2018-07-12T09:09:26.883Z,100532.55
2018-07-12T09:11:56.273Z,100525.78
2018-07-12T09:14:25.742Z,100528.15
2018-07-12T09:16:55.031Z,100529.04
2018-07-12T09:19:24.592Z,100529.78
2018-07-12T09:21:53.932Z,100532.05
2018-07-12T09:24:23.197Z,100540.06
2018-07-12T09:26:52.433Z,100532.89
2018-07-12T09:29:21.867Z,100537.38
2018-07-12T09:31:51.227Z,100540.33
2018-07-12T09:34:20.534Z,100540.00
2018-07-12T09:36:49.733Z,100533.94
2018-07-12T09:39:18.968Z,100530.64
2018-07-12T09:41:48.349Z,100535.48
2018-07-12T09:44:17.679Z,100528.83
2018-07-12T09:46:47.142Z,100528.44
2018-07-12T09:49:16.519Z,100534.23
2018-07-12T09:51:45.675Z,100539.30
2018-07-12T09:54:14.977Z,100547.34
2018-07-12T09:56:55.224Z,100539.07
2018-07-12T09:59:24.522Z,100532.95
2018-07-12T10:01:58.847Z,100545.74
2018-07-12T10:04:28.869Z,100532.23
2018-07-12T10:07:03.488Z,100543.57
2018-07-12T10:09:37.588Z,100542.28
2018-07-12T10:12:11.941Z,100537.52
2018-07-12T10:14:46.264Z,100538.17
2018-07-12T10:17:20.651Z,100540.41
2018-07-12T10:19:50.012Z,100547.11
2018-07-12T10:22:19.234Z,100541.28
2018-07-12T10:24:48.754Z,100538.97
2018-07-12T10:27:18.218Z,100543.69
2018-07-12T10:29:47.720Z,100546.09
2018-07-12T10:32:16.958Z,100547.06
2018-07-12T10:34:46.527Z,100552.72
2018-07-12T10:37:15.744Z,100552.80
2018-07-12T10:39:44.989Z,100544.66
2018-07-12T10:42:14.291Z,100555.87
2018-07-12T10:44:43.795Z,100550.55
2018-07-12T10:47:13.073Z,100548.73
2018-07-12T10:49:42.393Z,100546.77
2018-07-12T10:52:11.683Z,100546.97
2018-07-12T10:54:41.913Z,100545.02
2018-07-12T10:57:11.167Z,100544.07
2018-07-12T10:59:40.325Z,100547.48
2018-07-12T11:02:09.453Z,100543.89
2018-07-12T11:04:38.437Z,100544.20
2018-07-12T11:07:07.774Z,100543.89
2018-07-12T11:09:36.777Z,100545.87
2018-07-12T11:12:05.690Z,100545.30
2018-07-12T11:14:35.090Z,100544.10
2018-07-12T11:17:04.473Z,100546.63
2018-07-12T11:19:33.807Z,100550.20
2018-07-12T11:22:03.059Z,100547.27
2018-07-12T11:24:32.301Z,100539.02
2018-07-12T11:27:01.546Z,100546.68
2018-07-12T11:29:41.945Z,100542.53
2018-07-12T11:32:11.194Z,100541.22
2018-07-12T11:34:40.554Z,100538.06
2018-07-12T11:37:11.051Z,100542.25
2018-07-12T11:39:40.275Z,100533.05
2018-07-12T11:42:09.654Z,100542.74
2018-07-12T11:44:39.332Z,100541.80
2018-07-12T11:47:08.670Z,100541.73
2018-07-12T11:49:37.885Z,100547.33
2018-07-12T11:52:07.157Z,100548.52
2018-07-12T11:54:36.804Z,100541.89
2018-07-12T11:57:05.992Z,100541.53
2018-07-12T11:59:35.301Z,100546.54
2018-07-12T12:02:04.598Z,100543.02
2018-07-12T12:04:33.798Z,100547.02
2018-07-12T12:07:03.054Z,100543.38
2018-07-12T12:09:32.290Z,100540.88
2018-07-12T12:12:01.584Z,100540.80
2018-07-12T12:14:30.788Z,100535.92
2018-07-12T12:17:00.190Z,100539.16
2018-07-12T12:19:29.638Z,100533.25
2018-07-12T12:21:59.711Z,100539.13
2018-07-12T12:24:29.127Z,100549.31
2018-07-12T12:26:58.446Z,100543.62
2018-07-12T12:29:27.789Z,100540.53
2018-07-12T12:31:57.030Z,100539.75
2018-07-12T12:34:26.325Z,100540.52
2018-07-12T12:36:55.620Z,100543.51
2018-07-12T12:39:24.778Z,100551.27
2018-07-12T12:41:54.047Z,100543.06
2018-07-12T12:44:23.390Z,100547.28
2018-07-12T12:46:55.357Z,100542.58
2018-07-12T12:49:24.470Z,100538.92
2018-07-12T12:51:54.070Z,100531.78
2018-07-12T12:54:23.245Z,100534.28
2018-07-12T12:56:52.367Z,100535.22
2018-07-12T12:59:21.683Z,100534.47
2018-07-12T13:01:51.053Z,100526.16
2018-07-12T13:04:20.289Z,100531.83
2018-07-12T13:06:49.709Z,100528.69
2018-07-12T13:09:19.057Z,100533.98
2018-07-12T13:11:48.335Z,100533.82
2018-07-12T13:14:17.819Z,100529.48
2018-07-12T13:16:47.194Z,100526.55
2018-07-12T13:19:16.362Z,100525.16
2018-07-12T13:21:45.699Z,100536.66
2018-07-12T13:24:15.170Z,100533.69
2018-07-12T13:26:44.398Z,100531.70
2018-07-12T13:29:13.698Z,100529.30
2018-07-12T13:31:43.265Z,100523.00
2018-07-12T13:34:12.471Z,100527.23
2018-07-12T13:36:41.877Z,100519.34
2018-07-12T13:39:11.337Z,100524.34
2018-07-12T13:41:40.722Z,100519.42
2018-07-12T13:44:17.395Z,100515.91
2018-07-12T13:46:47.470Z,100526.31
2018-07-12T13:49:17.050Z,100514.70
2018-07-12T13:51:47.765Z,100530.72
2018-07-12T13:54:17.474Z,100515.61
2018-07-12T13:56:47.095Z,100519.39
2018-07-12T13:59:16.347Z,100513.17
2018-07-12T14:01:45.686Z,100509.31
2018-07-12T14:04:14.851Z,100496.06
2018-07-12T14:06:44.083Z,100506.13
2018-07-12T14:09:14.057Z,100496.91
2018-07-12T14:11:43.117Z,100504.92
2018-07-12T14:14:12.102Z,100509.24
2018-07-12T14:16:41.462Z,100505.92
2018-07-12T14:19:10.788Z,100501.81
2018-07-12T14:21:40.074Z,100505.97
2018-07-12T14:24:09.372Z,100503.33
2018-07-12T14:26:38.773Z,100494.84
2018-07-12T14:29:08.025Z,100500.63
2018-07-12T14:31:37.289Z,100490.86
2018-07-12T14:34:06.525Z,100494.89
2018-07-12T14:36:35.767Z,100491.30
2018-07-12T14:39:06.044Z,100492.20
2018-07-12T14:41:35.315Z,100487.56
2018-07-12T14:44:04.671Z,100481.50
2018-07-12T14:46:34.586Z,100492.48
2018-07-12T14:49:03.866Z,100484.73
2018-07-12T14:51:33.216Z,100492.45
2018-07-12T14:54:02.463Z,100492.83
2018-07-12T14:56:31.716Z,100490.47
2018-07-12T14:59:01.089Z,100482.65
2018-07-12T15:01:30.351Z,100478.69
2018-07-12T15:03:59.619Z,100483.19
2018-07-12T15:06:29.025Z,100486.94
2018-07-12T15:08:58.534Z,100484.91
2018-07-12T15:11:27.743Z,100476.48
2018-07-12T15:13:57.115Z,100477.80
2018-07-12T15:16:26.546Z,100479.63
2018-07-12T15:18:55.795Z,100484.03
2018-07-12T15:21:25.036Z,100479.06
2018-07-12T15:23:54.299Z,100484.91
2018-07-12T15:26:23.572Z,100474.19
2018-07-12T15:28:52.882Z,100477.23
2018-07-12T15:31:22.255Z,100474.19
2018-07-12T15:33:51.485Z,100470.63
2018-07-12T15:36:20.836Z,100468.69
2018-07-12T15:38:50.084Z,100468.13
2018-07-12T15:41:19.326Z,100464.83
2018-07-12T15:43:48.627Z,100469.52
2018-07-12T15:46:17.927Z,100466.20
2018-07-12T15:48:47.188Z,100458.77
2018-07-12T15:51:16.541Z,100459.52
2018-07-12T15:53:46.010Z,100464.00
2018-07-12T15:56:15.343Z,100456.34
2018-07-12T15:58:44.740Z,100464.13
2018-07-12T16:01:14.161Z,100454.72
2018-07-12T16:03:43.414Z,100458.59
2018-07-12T16:06:12.663Z,100455.17
2018-07-12T16:08:42.034Z,100453.93
2018-07-12T16:11:11.217Z,100449.74
2018-07-12T16:13:40.563Z,100446.35
2018-07-12T16:16:09.920Z,100446.84
2018-07-12T16:18:39.262Z,100440.78
2018-07-12T16:21:08.622Z,100442.94
2018-07-12T16:23:37.846Z,100442.59
2018-07-12T16:26:07.108Z,100444.82
2018-07-12T16:28:36.358Z,100447.41
2018-07-12T16:31:05.703Z,100441.78
2018-07-12T16:33:34.950Z,100436.45
2018-07-12T16:36:04.323Z,100444.36
2018-07-12T16:38:33.655Z,100435.61
2018-07-12T16:41:02.970Z,100437.96
2018-07-12T16:43:32.334Z,100432.84
2018-07-12T16:46:01.508Z,100437.80
2018-07-12T16:48:30.780Z,100435.88
2018-07-12T16:51:00.041Z,100437.55
2018-07-12T16:53:29.589Z,100436.48
2018-07-12T16:55:58.951Z,100432.91
2018-07-12T16:58:28.560Z,100431.64
2018-07-12T17:00:58.090Z,100430.95
2018-07-12T17:03:27.234Z,100436.10
2018-07-12T17:05:56.998Z,100431.69
2018-07-12T17:08:26.520Z,100431.39
2018-07-12T17:10:55.969Z,100434.88
2018-07-12T17:13:25.214Z,100436.41
2018-07-12T17:15:54.464Z,100433.75
2018-07-12T17:18:23.866Z,100437.91
2018-07-12T17:20:53.149Z,100439.03
2018-07-12T17:23:22.521Z,100435.48
2018-07-12T17:25:51.776Z,100431.00
2018-07-12T17:28:20.991Z,100432.95
2018-07-12T17:30:50.464Z,100436.98
2018-07-12T17:33:19.906Z,100441.27
2018-07-12T17:35:49.186Z,100437.77
2018-07-12T17:38:18.518Z,100435.91
2018-07-12T17:40:47.778Z,100440.89
2018-07-12T17:43:17.121Z,100433.00
2018-07-12T17:45:46.386Z,100438.97
2018-07-12T17:48:15.731Z,100439.53
2018-07-12T17:50:44.898Z,100443.34
2018-07-12T17:53:14.307Z,100452.22
2018-07-12T17:55:43.570Z,100445.61
2018-07-12T17:58:12.964Z,100448.42
2018-07-12T18:00:42.195Z,100448.85
2018-07-12T18:03:11.366Z,100454.80
2018-07-12T18:05:40.574Z,100448.00
2018-07-12T18:08:09.935Z,100455.98
2018-07-12T18:10:39.161Z,100453.00
2018-07-12T18:13:08.816Z,100451.00
2018-07-12T18:15:38.218Z,100448.25
2018-07-12T18:18:07.614Z,100460.89
2018-07-12T18:20:37.012Z,100457.08
2018-07-12T18:23:07.021Z,100450.11
2018-07-12T18:25:36.300Z,100453.86
2018-07-12T18:28:05.554Z,100446.68
2018-07-12T18:30:34.992Z,100448.45
2018-07-12T18:33:04.494Z,100452.98
2018-07-12T18:35:33.835Z,100453.03
2018-07-12T18:38:03.152Z,100454.00
2018-07-12T18:40:32.908Z,100446.73
2018-07-12T18:43:02.572Z,100450.06
2018-07-12T18:45:31.488Z,100453.47
2018-07-12T18:48:00.479Z,100453.41
2018-07-12T18:50:29.416Z,100451.75
2018-07-12T18:52:58.456Z,100456.84
2018-07-12T18:55:27.474Z,100462.42
2018-07-12T18:57:56.449Z,100470.81
2018-07-12T19:00:25.803Z,100468.48
2018-07-12T19:02:55.024Z,100474.77
2018-07-12T19:05:24.331Z,100468.44
2018-07-12T19:07:53.765Z,100477.58
2018-07-12T19:10:23.105Z,100485.61
2018-07-12T19:12:52.470Z,100488.83
2018-07-12T19:15:21.866Z,100489.17
2018-07-12T19:17:51.156Z,100487.11
2018-07-12T19:20:20.418Z,100496.78
2018-07-12T19:22:49.754Z,100498.23
2018-07-12T19:25:19.040Z,100499.66
2018-07-12T19:27:48.448Z,100505.08
2018-07-12T19:30:17.703Z,100507.81
2018-07-12T19:32:46.957Z,100506.45
2018-07-12T19:35:16.258Z,100507.28
2018-07-12T19:37:45.647Z,100513.28
2018-07-12T19:40:15.039Z,100517.84
2018-07-12T19:42:44.303Z,100509.64
2018-07-12T19:45:13.570Z,100518.04
2018-07-12T19:47:42.828Z,100529.73
2018-07-12T19:50:12.170Z,100523.73
2018-07-12T19:52:41.434Z,100531.45
2018-07-12T19:55:10.657Z,100528.95
2018-07-12T19:57:40.064Z,100526.33
2018-07-12T20:00:09.562Z,100534.24
2018-07-12T20:02:38.751Z,100535.56
2018-07-12T20:05:08.056Z,100535.02
2018-07-12T20:07:37.313Z,100537.25
2018-07-12T20:10:06.622Z,100546.00
2018-07-12T20:12:35.851Z,100542.66
2018-07-12T20:15:05.270Z,100542.66
2018-07-12T20:17:34.552Z,100546.77
2018-07-12T20:20:03.856Z,100552.59
2018-07-12T20:22:33.757Z,100559.78
2018-07-12T20:25:03.081Z,100552.59
2018-07-12T20:27:32.338Z,100563.98
2018-07-12T20:30:01.475Z,100560.55
2018-07-12T20:32:30.826Z,100558.95
2018-07-12T20:35:00.747Z,100567.25
2018-07-12T20:37:29.831Z,100561.84
2018-07-12T20:39:59.215Z,100566.08
2018-07-12T20:42:28.955Z,100566.91
2018-07-12T20:44:58.226Z,100568.38
2018-07-12T20:47:27.494Z,100568.97
2018-07-12T20:49:56.896Z,100562.97
2018-07-12T20:52:26.256Z,100568.44
2018-07-12T20:54:55.670Z,100570.33
2018-07-12T20:57:25.016Z,100579.06
2018-07-12T20:59:54.154Z,100580.33
2018-07-12T21:02:23.527Z,100578.60
2018-07-12T21:04:52.677Z,100582.21
2018-07-12T21:07:21.921Z,100581.67
2018-07-12T21:09:51.166Z,100579.24
2018-07-12T21:12:20.388Z,100575.07
2018-07-12T21:14:49.756Z,100576.36
2018-07-12T21:17:19.875Z,100577.73
2018-07-12T21:19:49.197Z,100582.11
2018-07-12T21:22:18.443Z,100581.58
2018-07-12T21:24:47.700Z,100584.22
2018-07-12T21:27:17.007Z,100587.94
2018-07-12T21:29:46.411Z,100583.82
2018-07-12T21:32:15.626Z,100582.94
2018-07-12T21:34:44.914Z,100588.59
2018-07-12T21:37:14.278Z,100580.66
2018-07-12T21:39:43.630Z,100577.48
2018-07-12T21:42:12.901Z,100580.96
2018-07-12T21:44:42.540Z,100580.72
2018-07-12T21:47:11.935Z,100587.39
2018-07-12T21:49:41.233Z,100597.00
2018-07-12T21:52:10.524Z,100600.66
2018-07-12T21:54:39.872Z,100606.37
2018-07-12T21:57:09.108Z,100600.33
2018-07-12T21:59:38.342Z,100600.13
2018-07-12T22:02:07.604Z,100603.73
2018-07-12T22:04:36.854Z,100605.14
2018-07-12T22:08:19.462Z,100607.34
2018-07-12T22:10:49.892Z,100611.13
2018-07-12T22:13:19.726Z,100609.75
2018-07-12T22:15:49.034Z,100604.71
2018-07-12T22:18:18.376Z,100596.46
2018-07-12T22:20:47.594Z,100602.61
2018-07-12T22:23:17.240Z,100599.89
2018-07-12T22:25:46.651Z,100594.28
2018-07-12T22:28:16.402Z,100596.08
2018-07-12T22:30:45.749Z,100601.49
2018-07-12T22:33:15.088Z,100596.67
2018-07-12T22:35:44.447Z,100603.24
2018-07-12T22:38:13.816Z,100593.23
2018-07-12T22:40:43.094Z,100601.56
2018-07-12T22:43:12.218Z,100604.83
2018-07-12T22:45:41.706Z,100596.56
2018-07-12T22:48:11.095Z,100611.41
2018-07-12T22:50:40.371Z,100607.95
2018-07-12T22:53:10.157Z,100611.92
2018-07-12T22:55:40.065Z,100603.16
2018-07-12T22:58:09.335Z,100609.32
2018-07-12T23:00:38.883Z,100607.23
2018-07-12T23:03:08.243Z,100607.85
2018-07-12T23:05:37.626Z,100605.44
2018-07-12T23:08:06.971Z,100609.42
2018-07-12T23:10:36.323Z,100602.64
2018-07-12T23:13:05.594Z,100603.45
2018-07-12T23:15:34.875Z,100602.11
2018-07-12T23:18:04.311Z,100602.63
2018-07-12T23:20:33.695Z,100600.44
2018-07-12T23:23:03.012Z,100597.30
2018-07-12T23:25:32.318Z,100599.03
2018-07-12T23:28:01.614Z,100599.14
2018-07-12T23:30:30.866Z,100597.36
2018-07-12T23:33:00.103Z,100598.22
2018-07-12T23:35:29.366Z,100595.71
2018-07-12T23:37:58.790Z,100595.60
2018-07-12T23:40:28.069Z,100596.13
2018-07-12T23:42:57.465Z,100595.30
2018-07-12T23:45:26.769Z,100600.36
2018-07-12T23:47:56.093Z,100597.51
2018-07-12T23:50:25.396Z,100600.23
2018-07-12T23:52:54.791Z,100598.17
2018-07-12T23:55:24.175Z,100601.23
2018-07-12T23:57:53.406Z,100601.38
